Terminal Aerodrome Forecast
Issued by NWS Goodland, KS

Home | Current Version | Previous Version | Text Only | Print | Product List | Glossary On
Versions: 1 2 3 4 5 6 7 8 9 10 11 12 13 14 15 16 17 18 19 20 21 22 23 24 25
000
FTUS43 KGLD 281723
TAFGLD
TAF
KGLD 281723Z 2818/2918 33014G22KT P6SM SCT025
     FM282000 31013KT P6SM VCSH BKN035
     FM290200 30008KT P6SM BKN100
     FM291200 29012KT P6SM SKC=

USA.gov is the U.S. government's official web portal to all federal, state and local government web resources and services.